sensor_id;sensor_type;location;lat;lon;timestamp;pressure;altitude;pressure_sealevel;temperature;humidity
3250;BME280;1637;42.020;23.992;2023-03-26T00:00:06;92135.56;;;7.75;100.00
3250;BME280;1637;42.020;23.992;2023-03-26T00:02:39;92124.66;;;8.27;100.00
3250;BME280;1637;42.020;23.992;2023-03-26T00:05:08;92138.63;;;8.38;100.00
3250;BME280;1637;42.020;23.992;2023-03-26T00:07:34;92136.72;;;8.39;100.00
3250;BME280;1637;42.020;23.992;2023-03-26T00:10:01;92144.22;;;7.86;100.00
3250;BME280;1637;42.020;23.992;2023-03-26T00:12:30;92146.16;;;7.82;100.00
3250;BME280;1637;42.020;23.992;2023-03-26T00:14:57;92151.47;;;7.86;100.00
3250;BME280;1637;42.020;23.992;2023-03-26T00:17:24;92152.25;;;7.83;100.00
3250;BME280;1637;42.020;23.992;2023-03-26T00:19:50;92151.19;;;7.77;100.00
3250;BME280;1637;42.020;23.992;2023-03-26T00:22:18;92152.31;;;7.76;100.00
3250;BME280;1637;42.020;23.992;2023-03-26T00:24:45;92163.19;;;7.92;100.00
3250;BME280;1637;42.020;23.992;2023-03-26T00:27:13;92159.44;;;7.89;100.00
3250;BME280;1637;42.020;23.992;2023-03-26T00:29:41;92155.94;;;7.58;100.00
3250;BME280;1637;42.020;23.992;2023-03-26T00:32:09;92165.09;;;7.57;100.00
3250;BME280;1637;42.020;23.992;2023-03-26T00:34:35;92147.81;;;7.35;100.00
3250;BME280;1637;42.020;23.992;2023-03-26T00:37:05;92157.91;;;7.13;100.00
3250;BME280;1637;42.020;23.992;2023-03-26T00:39:33;92163.91;;;7.24;100.00
3250;BME280;1637;42.020;23.992;2023-03-26T00:42:01;92153.91;;;7.32;100.00
3250;BME280;1637;42.020;23.992;2023-03-26T00:44:31;92148.72;;;7.18;100.00
3250;BME280;1637;42.020;23.992;2023-03-26T00:47:00;92153.38;;;7.07;100.00
3250;BME280;1637;42.020;23.992;2023-03-26T00:49:28;92145.69;;;7.19;100.00
3250;BME280;1637;42.020;23.992;2023-03-26T00:51:56;92142.50;;;6.90;100.00
3250;BME280;1637;42.020;23.992;2023-03-26T00:54:23;92145.88;;;6.95;100.00
3250;BME280;1637;42.020;23.992;2023-03-26T00:56:50;92162.75;;;7.26;100.00
3250;BME280;1637;42.020;23.992;2023-03-26T00:59:20;92167.97;;;7.36;100.00
3250;BME280;1637;42.020;23.992;2023-03-26T01:01:47;92158.75;;;7.03;100.00
3250;BME280;1637;42.020;23.992;2023-03-26T01:04:23;92166.19;;;7.22;100.00
3250;BME280;1637;42.020;23.992;2023-03-26T01:06:51;92162.59;;;6.99;100.00
3250;BME280;1637;42.020;23.992;2023-03-26T01:09:21;92167.63;;;6.86;100.00
3250;BME280;1637;42.020;23.992;2023-03-26T01:11:49;92158.63;;;6.69;100.00
3250;BME280;1637;42.020;23.992;2023-03-26T01:14:20;92151.91;;;7.02;100.00
3250;BME280;1637;42.020;23.992;2023-03-26T01:16:51;92155.41;;;7.37;100.00
3250;BME280;1637;42.020;23.992;2023-03-26T01:19:22;92166.56;;;6.76;100.00
3250;BME280;1637;42.020;23.992;2023-03-26T01:21:51;92164.47;;;7.02;100.00
3250;BME280;1637;42.020;23.992;2023-03-26T01:24:19;92175.13;;;7.46;100.00
3250;BME280;1637;42.020;23.992;2023-03-26T01:27:08;92176.09;;;7.63;100.00
3250;BME280;1637;42.020;23.992;2023-03-26T01:29:42;92167.44;;;7.48;100.00
3250;BME280;1637;42.020;23.992;2023-03-26T01:32:18;92126.38;;;6.64;100.00
3250;BME280;1637;42.020;23.992;2023-03-26T01:34:56;92141.66;;;6.52;100.00
3250;BME280;1637;42.020;23.992;2023-03-26T01:37:31;92167.91;;;6.47;100.00
3250;BME280;1637;42.020;23.992;2023-03-26T01:40:05;92170.53;;;6.54;100.00
3250;BME280;1637;42.020;23.992;2023-03-26T01:42:37;92170.88;;;6.60;100.00
3250;BME280;1637;42.020;23.992;2023-03-26T01:45:09;92177.75;;;6.53;100.00
3250;BME280;1637;42.020;23.992;2023-03-26T01:47:38;92166.94;;;6.78;100.00
3250;BME280;1637;42.020;23.992;2023-03-26T01:50:07;92170.22;;;6.97;100.00
3250;BME280;1637;42.020;23.992;2023-03-26T01:52:34;92181.84;;;7.17;100.00
3250;BME280;1637;42.020;23.992;2023-03-26T01:55:03;92180.44;;;7.05;100.00
3250;BME280;1637;42.020;23.992;2023-03-26T01:57:35;92188.47;;;6.95;100.00
3250;BME280;1637;42.020;23.992;2023-03-26T02:00:18;92198.31;;;7.05;100.00
3250;BME280;1637;42.020;23.992;2023-03-26T02:03:06;92194.13;;;7.04;100.00
3250;BME280;1637;42.020;23.992;2023-03-26T02:05:46;92198.41;;;6.87;100.00
3250;BME280;1637;42.020;23.992;2023-03-26T02:08:21;92198.56;;;6.66;100.00
3250;BME280;1637;42.020;23.992;2023-03-26T02:10:51;92186.88;;;6.49;100.00
3250;BME280;1637;42.020;23.992;2023-03-26T02:13:20;92187.47;;;6.08;100.00
3250;BME280;1637;42.020;23.992;2023-03-26T02:15:56;92190.63;;;5.78;100.00
3250;BME280;1637;42.020;23.992;2023-03-26T02:18:23;92189.81;;;5.92;100.00
3250;BME280;1637;42.020;23.992;2023-03-26T02:20:50;92195.06;;;6.06;100.00
3250;BME280;1637;42.020;23.992;2023-03-26T02:23:18;92210.13;;;6.38;100.00
3250;BME280;1637;42.020;23.992;2023-03-26T02:25:45;92211.19;;;6.51;100.00
3250;BME280;1637;42.020;23.992;2023-03-26T02:28:13;92211.16;;;6.58;100.00
3250;BME280;1637;42.020;23.992;2023-03-26T02:30:41;92196.84;;;6.38;100.00
3250;BME280;1637;42.020;23.992;2023-03-26T02:33:10;92192.03;;;6.04;100.00
3250;BME280;1637;42.020;23.992;2023-03-26T02:35:40;92198.94;;;5.91;100.00
3250;BME280;1637;42.020;23.992;2023-03-26T02:38:09;92194.75;;;5.86;100.00
3250;BME280;1637;42.020;23.992;2023-03-26T02:40:39;92191.34;;;5.90;100.00
3250;BME280;1637;42.020;23.992;2023-03-26T02:43:06;92235.00;;;5.99;100.00
3250;BME280;1637;42.020;23.992;2023-03-26T02:45:34;92190.56;;;6.00;100.00
3250;BME280;1637;42.020;23.992;2023-03-26T02:48:01;92199.75;;;5.63;100.00
3250;BME280;1637;42.020;23.992;2023-03-26T02:50:28;92198.22;;;5.76;100.00
3250;BME280;1637;42.020;23.992;2023-03-26T02:52:57;92199.94;;;6.26;100.00
3250;BME280;1637;42.020;23.992;2023-03-26T02:55:24;92200.38;;;6.17;100.00
3250;BME280;1637;42.020;23.992;2023-03-26T02:57:51;92209.56;;;6.02;100.00
3250;BME280;1637;42.020;23.992;2023-03-26T03:00:18;92193.66;;;5.77;100.00
3250;BME280;1637;42.020;23.992;2023-03-26T03:02:49;92197.09;;;5.70;100.00
3250;BME280;1637;42.020;23.992;2023-03-26T03:05:17;92187.66;;;5.48;100.00
3250;BME280;1637;42.020;23.992;2023-03-26T03:07:44;92180.88;;;5.36;100.00
3250;BME280;1637;42.020;23.992;2023-03-26T03:10:11;92192.97;;;5.44;100.00
3250;BME280;1637;42.020;23.992;2023-03-26T03:12:40;92208.09;;;5.72;100.00
3250;BME280;1637;42.020;23.992;2023-03-26T03:15:08;92200.50;;;5.74;100.00
3250;BME280;1637;42.020;23.992;2023-03-26T03:17:35;92198.84;;;6.12;100.00
3250;BME280;1637;42.020;23.992;2023-03-26T03:20:03;92195.44;;;6.08;100.00
3250;BME280;1637;42.020;23.992;2023-03-26T03:22:32;92195.06;;;6.13;100.00
3250;BME280;1637;42.020;23.992;2023-03-26T03:24:58;92188.66;;;6.00;100.00
3250;BME280;1637;42.020;23.992;2023-03-26T03:27:25;92193.66;;;5.73;100.00
3250;BME280;1637;42.020;23.992;2023-03-26T03:29:52;92194.38;;;5.88;100.00
3250;BME280;1637;42.020;23.992;2023-03-26T03:32:20;92204.25;;;5.91;100.00
3250;BME280;1637;42.020;23.992;2023-03-26T03:34:47;92208.41;;;5.85;100.00
3250;BME280;1637;42.020;23.992;2023-03-26T03:37:16;92197.53;;;5.40;100.00
3250;BME280;1637;42.020;23.992;2023-03-26T03:39:44;92233.56;;;5.45;100.00
3250;BME280;1637;42.020;23.992;2023-03-26T03:42:11;92218.78;;;5.26;100.00
3250;BME280;1637;42.020;23.992;2023-03-26T03:44:38;92225.63;;;5.24;100.00
3250;BME280;1637;42.020;23.992;2023-03-26T03:47:05;92229.34;;;5.69;100.00
3250;BME280;1637;42.020;23.992;2023-03-26T03:49:31;92223.66;;;5.77;100.00
3250;BME280;1637;42.020;23.992;2023-03-26T03:51:58;92226.66;;;5.90;100.00
3250;BME280;1637;42.020;23.992;2023-03-26T03:54:27;92229.25;;;6.08;100.00
3250;BME280;1637;42.020;23.992;2023-03-26T03:56:54;92227.41;;;5.94;100.00
3250;BME280;1637;42.020;23.992;2023-03-26T03:59:21;92243.34;;;6.01;100.00
3250;BME280;1637;42.020;23.992;2023-03-26T04:01:48;92241.06;;;5.82;100.00
3250;BME280;1637;42.020;23.992;2023-03-26T04:04:16;92235.75;;;5.82;100.00
3250;BME280;1637;42.020;23.992;2023-03-26T04:06:43;92242.53;;;6.08;100.00
3250;BME280;1637;42.020;23.992;2023-03-26T04:09:10;92243.03;;;5.49;100.00
3250;BME280;1637;42.020;23.992;2023-03-26T04:11:38;92244.59;;;5.15;100.00
3250;BME280;1637;42.020;23.992;2023-03-26T04:14:05;92258.22;;;5.21;100.00
3250;BME280;1637;42.020;23.992;2023-03-26T04:16:31;92261.66;;;5.21;100.00
3250;BME280;1637;42.020;23.992;2023-03-26T04:18:58;92262.03;;;5.37;100.00
3250;BME280;1637;42.020;23.992;2023-03-26T04:21:27;92249.50;;;5.27;100.00
3250;BME280;1637;42.020;23.992;2023-03-26T04:23:54;92247.63;;;5.17;100.00
3250;BME280;1637;42.020;23.992;2023-03-26T04:26:21;92250.28;;;5.17;100.00
3250;BME280;1637;42.020;23.992;2023-03-26T04:28:54;92261.63;;;5.42;100.00
3250;BME280;1637;42.020;23.992;2023-03-26T04:31:23;92270.31;;;5.85;100.00
3250;BME280;1637;42.020;23.992;2023-03-26T04:33:54;92271.84;;;5.94;100.00
3250;BME280;1637;42.020;23.992;2023-03-26T04:36:27;92265.41;;;5.80;100.00
3250;BME280;1637;42.020;23.992;2023-03-26T04:38:57;92269.16;;;6.01;100.00
3250;BME280;1637;42.020;23.992;2023-03-26T04:41:27;92251.25;;;6.23;100.00
3250;BME280;1637;42.020;23.992;2023-03-26T04:43:56;92282.00;;;7.00;100.00
3250;BME280;1637;42.020;23.992;2023-03-26T04:46:26;92282.03;;;6.97;100.00
3250;BME280;1637;42.020;23.992;2023-03-26T04:48:58;92287.50;;;6.72;100.00
3250;BME280;1637;42.020;23.992;2023-03-26T04:51:31;92289.34;;;6.85;100.00
3250;BME280;1637;42.020;23.992;2023-03-26T04:54:00;92251.38;;;6.67;100.00
3250;BME280;1637;42.020;23.992;2023-03-26T04:56:35;92289.00;;;7.35;100.00
3250;BME280;1637;42.020;23.992;2023-03-26T04:59:07;92291.81;;;7.66;100.00
3250;BME280;1637;42.020;23.992;2023-03-26T05:01:38;92291.72;;;8.51;96.05
3250;BME280;1637;42.020;23.992;2023-03-26T05:04:05;92292.78;;;9.15;93.36
3250;BME280;1637;42.020;23.992;2023-03-26T05:06:32;92279.13;;;9.59;89.08
3250;BME280;1637;42.020;23.992;2023-03-26T05:08:59;92286.19;;;9.73;87.84
3250;BME280;1637;42.020;23.992;2023-03-26T05:11:26;92302.81;;;10.31;85.18
3250;BME280;1637;42.020;23.992;2023-03-26T05:13:53;92315.56;;;10.63;82.53
3250;BME280;1637;42.020;23.992;2023-03-26T05:16:23;92318.78;;;10.11;82.94
3250;BME280;1637;42.020;23.992;2023-03-26T05:18:50;92326.03;;;10.77;90.44
3250;BME280;1637;42.020;23.992;2023-03-26T05:21:17;92329.44;;;9.41;88.16
3250;BME280;1637;42.020;23.992;2023-03-26T05:23:43;92333.44;;;8.72;92.73
3250;BME280;1637;42.020;23.992;2023-03-26T05:26:11;92342.91;;;8.02;97.63
3250;BME280;1637;42.020;23.992;2023-03-26T05:28:38;92343.03;;;7.87;100.00
3250;BME280;1637;42.020;23.992;2023-03-26T05:31:05;92351.28;;;8.00;100.00
3250;BME280;1637;42.020;23.992;2023-03-26T05:33:33;92347.44;;;8.05;99.74
3250;BME280;1637;42.020;23.992;2023-03-26T05:36:02;92350.50;;;8.03;99.82
3250;BME280;1637;42.020;23.992;2023-03-26T05:38:30;92350.72;;;7.75;100.00
3250;BME280;1637;42.020;23.992;2023-03-26T05:40:57;92340.31;;;7.43;100.00
3250;BME280;1637;42.020;23.992;2023-03-26T05:43:25;92347.09;;;7.51;100.00
3250;BME280;1637;42.020;23.992;2023-03-26T05:45:52;92351.81;;;7.29;100.00
3250;BME280;1637;42.020;23.992;2023-03-26T05:48:19;92357.19;;;7.22;100.00
3250;BME280;1637;42.020;23.992;2023-03-26T05:50:48;92358.88;;;6.91;100.00
3250;BME280;1637;42.020;23.992;2023-03-26T05:53:16;92363.44;;;6.87;100.00
3250;BME280;1637;42.020;23.992;2023-03-26T05:55:44;92366.44;;;7.00;100.00
3250;BME280;1637;42.020;23.992;2023-03-26T05:58:12;92391.19;;;6.97;100.00
3250;BME280;1637;42.020;23.992;2023-03-26T06:00:39;92370.13;;;7.23;100.00
3250;BME280;1637;42.020;23.992;2023-03-26T06:03:05;92373.66;;;7.65;100.00
3250;BME280;1637;42.020;23.992;2023-03-26T06:05:37;92369.63;;;7.94;100.00
3250;BME280;1637;42.020;23.992;2023-03-26T06:08:06;92373.22;;;8.18;100.00
3250;BME280;1637;42.020;23.992;2023-03-26T06:10:36;92376.56;;;8.30;100.00
3250;BME280;1637;42.020;23.992;2023-03-26T06:13:03;92399.13;;;9.27;100.00
3250;BME280;1637;42.020;23.992;2023-03-26T06:15:30;92394.63;;;10.01;100.00
3250;BME280;1637;42.020;23.992;2023-03-26T06:17:57;92382.00;;;9.51;95.49
3250;BME280;1637;42.020;23.992;2023-03-26T06:20:24;92385.53;;;9.72;95.95
3250;BME280;1637;42.020;23.992;2023-03-26T06:22:50;92387.91;;;9.93;93.67
3250;BME280;1637;42.020;23.992;2023-03-26T06:25:19;92389.44;;;11.59;83.93
3250;BME280;1637;42.020;23.992;2023-03-26T06:27:46;92406.84;;;13.81;72.57
3250;BME280;1637;42.020;23.992;2023-03-26T06:30:13;92403.50;;;13.22;73.41
3250;BME280;1637;42.020;23.992;2023-03-26T06:32:40;92405.28;;;13.13;74.04
3250;BME280;1637;42.020;23.992;2023-03-26T06:35:07;92412.81;;;12.11;78.26
3250;BME280;1637;42.020;23.992;2023-03-26T06:37:35;92415.53;;;11.75;81.04
3250;BME280;1637;42.020;23.992;2023-03-26T06:40:02;92404.81;;;11.19;83.74
3250;BME280;1637;42.020;23.992;2023-03-26T06:42:31;92404.50;;;12.54;78.27
3250;BME280;1637;42.020;23.992;2023-03-26T06:44:58;92418.34;;;13.81;73.02
3250;BME280;1637;42.020;23.992;2023-03-26T06:47:25;92429.78;;;14.49;67.80
3250;BME280;1637;42.020;23.992;2023-03-26T06:49:51;92427.03;;;16.05;62.05
3250;BME280;1637;42.020;23.992;2023-03-26T06:52:18;92425.69;;;16.99;58.98
3250;BME280;1637;42.020;23.992;2023-03-26T06:54:48;92437.41;;;17.32;57.73
3250;BME280;1637;42.020;23.992;2023-03-26T06:57:14;92418.63;;;16.83;58.65
3250;BME280;1637;42.020;23.992;2023-03-26T06:59:43;92420.63;;;16.11;58.79
3250;BME280;1637;42.020;23.992;2023-03-26T07:02:10;92423.94;;;16.56;59.28
3250;BME280;1637;42.020;23.992;2023-03-26T07:04:37;92416.44;;;15.14;63.00
3250;BME280;1637;42.020;23.992;2023-03-26T07:07:04;92414.47;;;16.11;63.33
3250;BME280;1637;42.020;23.992;2023-03-26T07:09:30;92433.00;;;18.32;55.70
3250;BME280;1637;42.020;23.992;2023-03-26T07:11:57;92432.53;;;18.42;53.97
3250;BME280;1637;42.020;23.992;2023-03-26T07:14:24;92419.38;;;18.83;54.40
3250;BME280;1637;42.020;23.992;2023-03-26T07:16:53;92417.72;;;18.19;55.68
3250;BME280;1637;42.020;23.992;2023-03-26T07:19:20;92425.16;;;18.34;57.00
3250;BME280;1637;42.020;23.992;2023-03-26T07:21:48;92426.16;;;19.50;52.79
3250;BME280;1637;42.020;23.992;2023-03-26T07:24:15;92429.41;;;19.15;52.74
3250;BME280;1637;42.020;23.992;2023-03-26T07:26:49;92420.56;;;18.16;56.01
3250;BME280;1637;42.020;23.992;2023-03-26T07:29:26;92413.56;;;17.91;54.27
3250;BME280;1637;42.020;23.992;2023-03-26T07:32:04;92422.56;;;18.81;51.49
3250;BME280;1637;42.020;23.992;2023-03-26T07:34:42;92415.63;;;18.47;51.00
3250;BME280;1637;42.020;23.992;2023-03-26T07:37:19;92428.91;;;19.02;50.28
3250;BME280;1637;42.020;23.992;2023-03-26T07:39:52;92414.63;;;19.16;50.52
3250;BME280;1637;42.020;23.992;2023-03-26T07:42:40;92424.22;;;19.65;48.70
3250;BME280;1637;42.020;23.992;2023-03-26T07:45:19;92425.56;;;19.07;50.52
3250;BME280;1637;42.020;23.992;2023-03-26T07:47:51;92426.09;;;19.35;48.08
3250;BME280;1637;42.020;23.992;2023-03-26T07:50:22;92415.16;;;19.06;48.12
3250;BME280;1637;42.020;23.992;2023-03-26T07:52:50;92409.22;;;19.99;46.66
3250;BME280;1637;42.020;23.992;2023-03-26T07:55:18;92409.31;;;19.37;47.34
3250;BME280;1637;42.020;23.992;2023-03-26T07:57:53;92407.44;;;19.67;46.64
3250;BME280;1637;42.020;23.992;2023-03-26T08:00:26;92411.22;;;18.59;49.07
3250;BME280;1637;42.020;23.992;2023-03-26T08:03:18;92417.84;;;18.58;48.92
3250;BME280;1637;42.020;23.992;2023-03-26T08:05:52;92415.09;;;18.34;49.14
3250;BME280;1637;42.020;23.992;2023-03-26T08:08:28;92413.44;;;18.70;47.92
3250;BME280;1637;42.020;23.992;2023-03-26T08:11:09;92367.22;;;16.92;52.51
3250;BME280;1637;42.020;23.992;2023-03-26T08:13:47;92403.63;;;17.97;48.93
3250;BME280;1637;42.020;23.992;2023-03-26T08:16:24;92410.41;;;19.15;46.66
3250;BME280;1637;42.020;23.992;2023-03-26T08:19:02;92410.06;;;18.75;47.48
3250;BME280;1637;42.020;23.992;2023-03-26T08:21:36;92404.00;;;19.28;46.32
3250;BME280;1637;42.020;23.992;2023-03-26T08:24:07;92406.13;;;19.23;45.94
3250;BME280;1637;42.020;23.992;2023-03-26T08:26:46;92414.28;;;18.76;45.15
3250;BME280;1637;42.020;23.992;2023-03-26T08:29:21;92383.59;;;17.07;51.58
3250;BME280;1637;42.020;23.992;2023-03-26T08:31:52;92390.34;;;17.39;49.85
3250;BME280;1637;42.020;23.992;2023-03-26T08:34:23;92378.34;;;16.18;51.52
3250;BME280;1637;42.020;23.992;2023-03-26T08:36:50;92385.16;;;18.62;47.90
3250;BME280;1637;42.020;23.992;2023-03-26T08:39:17;92391.44;;;17.93;42.97
3250;BME280;1637;42.020;23.992;2023-03-26T08:42:28;92393.41;;;18.91;41.06
3250;BME280;1637;42.020;23.992;2023-03-26T08:45:24;92383.56;;;19.85;40.03
3250;BME280;1637;42.020;23.992;2023-03-26T08:51:44;92380.91;;;16.30;46.06
3250;BME280;1637;42.020;23.992;2023-03-26T08:54:53;92380.34;;;16.35;45.28
3250;BME280;1637;42.020;23.992;2023-03-26T09:00:34;92374.03;;;16.38;44.33
3250;BME280;1637;42.020;23.992;2023-03-26T09:03:34;92365.41;;;16.80;46.32
3250;BME280;1637;42.020;23.992;2023-03-26T09:06:29;92370.22;;;19.05;40.53
3250;BME280;1637;42.020;23.992;2023-03-26T09:09:43;92370.69;;;18.55;40.54
3250;BME280;1637;42.020;23.992;2023-03-26T09:31:30;92353.28;;;17.63;34.68
3250;BME280;1637;42.020;23.992;2023-03-26T09:34:24;92353.25;;;18.24;34.65
3250;BME280;1637;42.020;23.992;2023-03-26T09:36:54;92350.22;;;19.17;34.37
3250;BME280;1637;42.020;23.992;2023-03-26T09:39:32;92420.91;;;19.22;34.07
3250;BME280;1637;42.020;23.992;2023-03-26T09:42:08;92355.50;;;18.97;32.66
3250;BME280;1637;42.020;23.992;2023-03-26T09:48:15;92354.84;;;19.99;33.38
3250;BME280;1637;42.020;23.992;2023-03-26T09:51:06;92350.03;;;19.35;33.03
3250;BME280;1637;42.020;23.992;2023-03-26T09:53:46;92354.88;;;19.55;31.61
3250;BME280;1637;42.020;23.992;2023-03-26T09:56:26;92345.53;;;19.17;30.92
3250;BME280;1637;42.020;23.992;2023-03-26T09:59:16;92336.31;;;18.85;32.87
3250;BME280;1637;42.020;23.992;2023-03-26T10:01:53;92335.59;;;19.14;32.65
3250;BME280;1637;42.020;23.992;2023-03-26T10:05:00;92330.31;;;19.49;32.18
3250;BME280;1637;42.020;23.992;2023-03-26T10:07:45;92334.59;;;19.27;32.01
3250;BME280;1637;42.020;23.992;2023-03-26T10:10:24;92344.25;;;19.42;31.30
3250;BME280;1637;42.020;23.992;2023-03-26T10:12:57;92320.06;;;18.52;31.60
3250;BME280;1637;42.020;23.992;2023-03-26T10:15:34;92331.13;;;17.83;32.10
3250;BME280;1637;42.020;23.992;2023-03-26T10:18:16;92328.72;;;17.85;33.01
3250;BME280;1637;42.020;23.992;2023-03-26T10:20:54;92307.41;;;17.60;32.52
3250;BME280;1637;42.020;23.992;2023-03-26T10:23:37;92325.66;;;17.92;31.88
3250;BME280;1637;42.020;23.992;2023-03-26T10:26:19;92310.41;;;16.65;33.79
3250;BME280;1637;42.020;23.992;2023-03-26T10:29:02;92315.22;;;16.97;34.91
3250;BME280;1637;42.020;23.992;2023-03-26T10:31:39;92306.31;;;17.24;33.24
3250;BME280;1637;42.020;23.992;2023-03-26T10:34:15;92310.94;;;17.42;34.16
3250;BME280;1637;42.020;23.992;2023-03-26T10:36:55;92291.75;;;17.73;32.76
3250;BME280;1637;42.020;23.992;2023-03-26T10:39:36;92297.59;;;17.71;35.47
3250;BME280;1637;42.020;23.992;2023-03-26T10:42:28;92293.06;;;18.58;33.60
3250;BME280;1637;42.020;23.992;2023-03-26T10:45:23;92285.75;;;17.60;34.79
3250;BME280;1637;42.020;23.992;2023-03-26T10:48:19;92292.66;;;18.03;32.29
3250;BME280;1637;42.020;23.992;2023-03-26T10:51:14;92293.25;;;17.04;33.52
3250;BME280;1637;42.020;23.992;2023-03-26T10:53:48;92280.69;;;17.43;33.72
3250;BME280;1637;42.020;23.992;2023-03-26T10:56:22;92279.31;;;17.48;33.40
3250;BME280;1637;42.020;23.992;2023-03-26T10:58:51;92279.56;;;18.01;32.49
3250;BME280;1637;42.020;23.992;2023-03-26T11:01:27;92269.44;;;19.12;32.83
3250;BME280;1637;42.020;23.992;2023-03-26T11:04:05;92261.47;;;19.38;30.82
3250;BME280;1637;42.020;23.992;2023-03-26T11:06:40;92263.31;;;18.49;31.62
3250;BME280;1637;42.020;23.992;2023-03-26T11:09:22;92268.56;;;18.29;31.84
3250;BME280;1637;42.020;23.992;2023-03-26T11:11:56;92265.84;;;18.05;32.15
3250;BME280;1637;42.020;23.992;2023-03-26T11:14:30;92253.41;;;18.22;32.95
3250;BME280;1637;42.020;23.992;2023-03-26T11:17:03;92262.28;;;18.85;31.46
3250;BME280;1637;42.020;23.992;2023-03-26T11:19:40;92245.72;;;17.64;32.96
3250;BME280;1637;42.020;23.992;2023-03-26T11:22:16;92286.09;;;16.83;34.90
3250;BME280;1637;42.020;23.992;2023-03-26T11:24:57;92250.97;;;17.67;32.89
3250;BME280;1637;42.020;23.992;2023-03-26T11:27:34;92261.69;;;17.52;33.63
3250;BME280;1637;42.020;23.992;2023-03-26T11:30:20;92255.81;;;17.63;33.74
3250;BME280;1637;42.020;23.992;2023-03-26T11:32:52;92241.31;;;17.33;34.26
3250;BME280;1637;42.020;23.992;2023-03-26T11:35:24;92238.56;;;17.00;33.89
3250;BME280;1637;42.020;23.992;2023-03-26T11:37:53;92240.66;;;17.47;34.83
3250;BME280;1637;42.020;23.992;2023-03-26T11:40:26;92228.03;;;17.87;33.80
3250;BME280;1637;42.020;23.992;2023-03-26T11:42:58;92241.41;;;18.14;31.94
3250;BME280;1637;42.020;23.992;2023-03-26T11:45:29;92245.22;;;17.74;32.63
3250;BME280;1637;42.020;23.992;2023-03-26T11:48:02;92237.69;;;17.78;32.72
3250;BME280;1637;42.020;23.992;2023-03-26T11:50:34;92229.63;;;17.93;33.05
3250;BME280;1637;42.020;23.992;2023-03-26T11:53:11;92220.16;;;18.36;33.01
3250;BME280;1637;42.020;23.992;2023-03-26T11:55:43;92200.63;;;19.30;31.89
3250;BME280;1637;42.020;23.992;2023-03-26T11:58:22;92217.16;;;18.73;31.57
3250;BME280;1637;42.020;23.992;2023-03-26T12:00:52;92218.16;;;17.98;32.99
3250;BME280;1637;42.020;23.992;2023-03-26T12:03:20;92215.66;;;18.33;32.05
3250;BME280;1637;42.020;23.992;2023-03-26T12:05:48;92207.31;;;18.22;32.37
3250;BME280;1637;42.020;23.992;2023-03-26T12:08:20;92213.03;;;18.24;32.63
3250;BME280;1637;42.020;23.992;2023-03-26T12:10:59;92206.00;;;17.94;32.30
3250;BME280;1637;42.020;23.992;2023-03-26T12:13:33;92200.13;;;17.95;32.70
3250;BME280;1637;42.020;23.992;2023-03-26T12:16:04;92199.66;;;17.97;33.32
3250;BME280;1637;42.020;23.992;2023-03-26T12:18:32;92201.84;;;18.07;33.86
3250;BME280;1637;42.020;23.992;2023-03-26T12:21:05;92192.81;;;17.87;32.89
3250;BME280;1637;42.020;23.992;2023-03-26T12:23:35;92194.53;;;18.37;32.79
3250;BME280;1637;42.020;23.992;2023-03-26T12:26:19;92201.38;;;18.09;31.81
3250;BME280;1637;42.020;23.992;2023-03-26T12:28:48;92194.00;;;18.09;32.56
3250;BME280;1637;42.020;23.992;2023-03-26T12:31:17;92188.47;;;18.04;32.68
3250;BME280;1637;42.020;23.992;2023-03-26T12:33:50;92198.78;;;18.14;32.09
3250;BME280;1637;42.020;23.992;2023-03-26T12:36:30;92192.59;;;18.14;31.57
3250;BME280;1637;42.020;23.992;2023-03-26T12:38:58;92194.25;;;18.35;32.71
3250;BME280;1637;42.020;23.992;2023-03-26T12:41:35;92178.44;;;18.19;32.42
3250;BME280;1637;42.020;23.992;2023-03-26T12:44:20;92165.44;;;17.84;31.85
3250;BME280;1637;42.020;23.992;2023-03-26T12:46:50;92163.22;;;17.98;32.67
3250;BME280;1637;42.020;23.992;2023-03-26T12:49:19;92178.31;;;17.90;31.96
3250;BME280;1637;42.020;23.992;2023-03-26T12:51:48;92166.50;;;18.02;31.87
3250;BME280;1637;42.020;23.992;2023-03-26T12:54:32;92157.34;;;17.75;32.51
3250;BME280;1637;42.020;23.992;2023-03-26T12:57:17;92153.44;;;17.43;31.97
3250;BME280;1637;42.020;23.992;2023-03-26T13:00:01;92156.34;;;17.88;32.39
3250;BME280;1637;42.020;23.992;2023-03-26T13:02:55;92147.16;;;17.70;32.17
3250;BME280;1637;42.020;23.992;2023-03-26T13:05:34;92140.28;;;17.84;32.51
3250;BME280;1637;42.020;23.992;2023-03-26T13:08:25;92131.88;;;17.82;31.39
3250;BME280;1637;42.020;23.992;2023-03-26T13:11:03;92139.81;;;17.62;32.71
3250;BME280;1637;42.020;23.992;2023-03-26T13:16:51;92092.91;;;17.56;33.44
3250;BME280;1637;42.020;23.992;2023-03-26T13:19:22;92139.31;;;17.72;32.37
3250;BME280;1637;42.020;23.992;2023-03-26T13:22:01;92120.28;;;17.81;32.25
3250;BME280;1637;42.020;23.992;2023-03-26T13:24:38;92140.00;;;17.82;32.17
3250;BME280;1637;42.020;23.992;2023-03-26T13:27:21;92127.25;;;17.97;31.54
3250;BME280;1637;42.020;23.992;2023-03-26T13:29:56;92100.44;;;17.28;32.61
3250;BME280;1637;42.020;23.992;2023-03-26T13:32:33;92114.59;;;17.79;32.38
3250;BME280;1637;42.020;23.992;2023-03-26T13:35:14;92128.34;;;17.67;32.28
3250;BME280;1637;42.020;23.992;2023-03-26T13:37:50;92123.44;;;17.65;31.79
3250;BME280;1637;42.020;23.992;2023-03-26T13:40:25;92119.59;;;17.96;31.75
3250;BME280;1637;42.020;23.992;2023-03-26T13:43:22;92125.75;;;17.96;31.95
3250;BME280;1637;42.020;23.992;2023-03-26T13:45:58;92132.59;;;17.59;32.82
3250;BME280;1637;42.020;23.992;2023-03-26T13:48:29;92123.47;;;17.80;32.29
3250;BME280;1637;42.020;23.992;2023-03-26T13:51:03;92123.63;;;17.76;31.25
3250;BME280;1637;42.020;23.992;2023-03-26T13:53:37;92096.97;;;17.84;31.73
3250;BME280;1637;42.020;23.992;2023-03-26T13:56:09;92121.19;;;18.02;30.23
3250;BME280;1637;42.020;23.992;2023-03-26T13:58:42;92116.59;;;17.94;30.71
3250;BME280;1637;42.020;23.992;2023-03-26T14:01:14;92114.88;;;17.81;30.70
3250;BME280;1637;42.020;23.992;2023-03-26T14:03:50;92124.06;;;17.99;28.81
3250;BME280;1637;42.020;23.992;2023-03-26T14:06:28;92125.53;;;18.24;28.97
3250;BME280;1637;42.020;23.992;2023-03-26T14:09:01;92120.41;;;17.87;30.18
3250;BME280;1637;42.020;23.992;2023-03-26T14:11:34;92085.81;;;17.58;29.91
3250;BME280;1637;42.020;23.992;2023-03-26T14:14:09;92123.38;;;17.89;30.64